sensor_id;sensor_type;location;lat;lon;timestamp;P1;durP1;ratioP1;P2;durP2;ratioP2
20890;SDS011;10605;52.968;8.844;2023-10-31T00:01:28;17.08;;;14.70;;
20890;SDS011;10605;52.968;8.844;2023-10-31T00:03:54;17.85;;;15.88;;
20890;SDS011;10605;52.968;8.844;2023-10-31T00:06:19;17.63;;;14.70;;
20890;SDS011;10605;52.968;8.844;2023-10-31T00:08:45;15.60;;;14.00;;
20890;SDS011;10605;52.968;8.844;2023-10-31T00:11:11;19.02;;;15.27;;
20890;SDS011;10605;52.968;8.844;2023-10-31T00:13:37;16.20;;;14.50;;
20890;SDS011;10605;52.968;8.844;2023-10-31T00:16:03;17.63;;;14.50;;
20890;SDS011;10605;52.968;8.844;2023-10-31T00:18:28;18.73;;;15.57;;
20890;SDS011;10605;52.968;8.844;2023-10-31T00:20:54;17.88;;;14.75;;
20890;SDS011;10605;52.968;8.844;2023-10-31T00:23:21;20.60;;;16.13;;
20890;SDS011;10605;52.968;8.844;2023-10-31T00:25:47;16.73;;;14.65;;
20890;SDS011;10605;52.968;8.844;2023-10-31T00:28:13;18.38;;;14.85;;
20890;SDS011;10605;52.968;8.844;2023-10-31T00:30:38;21.30;;;16.27;;
20890;SDS011;10605;52.968;8.844;2023-10-31T00:33:04;19.10;;;14.65;;
20890;SDS011;10605;52.968;8.844;2023-10-31T00:35:30;18.10;;;15.10;;
20890;SDS011;10605;52.968;8.844;2023-10-31T00:37:55;18.65;;;15.52;;
20890;SDS011;10605;52.968;8.844;2023-10-31T00:40:21;19.23;;;15.85;;
20890;SDS011;10605;52.968;8.844;2023-10-31T00:42:47;18.13;;;15.55;;
20890;SDS011;10605;52.968;8.844;2023-10-31T00:45:12;22.15;;;16.00;;
20890;SDS011;10605;52.968;8.844;2023-10-31T00:47:38;17.90;;;14.82;;
20890;SDS011;10605;52.968;8.844;2023-10-31T00:50:04;15.52;;;13.88;;
20890;SDS011;10605;52.968;8.844;2023-10-31T00:52:30;15.40;;;13.88;;
20890;SDS011;10605;52.968;8.844;2023-10-31T00:54:55;14.73;;;13.25;;
20890;SDS011;10605;52.968;8.844;2023-10-31T00:57:21;15.00;;;12.73;;
20890;SDS011;10605;52.968;8.844;2023-10-31T00:59:47;16.10;;;13.50;;
20890;SDS011;10605;52.968;8.844;2023-10-31T01:02:12;13.48;;;12.18;;
20890;SDS011;10605;52.968;8.844;2023-10-31T01:04:38;13.43;;;12.05;;
20890;SDS011;10605;52.968;8.844;2023-10-31T01:07:04;13.93;;;12.32;;
20890;SDS011;10605;52.968;8.844;2023-10-31T01:09:30;18.88;;;12.85;;
20890;SDS011;10605;52.968;8.844;2023-10-31T01:11:55;14.35;;;12.85;;
20890;SDS011;10605;52.968;8.844;2023-10-31T01:14:21;15.65;;;12.75;;
20890;SDS011;10605;52.968;8.844;2023-10-31T01:16:46;15.63;;;13.80;;
20890;SDS011;10605;52.968;8.844;2023-10-31T01:19:12;16.05;;;12.93;;
20890;SDS011;10605;52.968;8.844;2023-10-31T01:21:37;17.02;;;13.65;;
20890;SDS011;10605;52.968;8.844;2023-10-31T01:24:03;15.73;;;14.13;;
20890;SDS011;10605;52.968;8.844;2023-10-31T01:26:29;15.00;;;13.10;;
20890;SDS011;10605;52.968;8.844;2023-10-31T01:28:55;15.23;;;13.63;;
20890;SDS011;10605;52.968;8.844;2023-10-31T01:31:20;14.63;;;13.13;;
20890;SDS011;10605;52.968;8.844;2023-10-31T01:33:46;17.45;;;14.02;;
20890;SDS011;10605;52.968;8.844;2023-10-31T01:36:12;17.95;;;14.40;;
20890;SDS011;10605;52.968;8.844;2023-10-31T01:38:39;15.50;;;13.85;;
20890;SDS011;10605;52.968;8.844;2023-10-31T01:41:05;17.42;;;15.00;;
20890;SDS011;10605;52.968;8.844;2023-10-31T01:46:00;17.92;;;14.27;;
20890;SDS011;10605;52.968;8.844;2023-10-31T01:48:26;19.13;;;15.05;;
20890;SDS011;10605;52.968;8.844;2023-10-31T01:50:54;18.00;;;14.00;;
20890;SDS011;10605;52.968;8.844;2023-10-31T01:53:19;16.42;;;14.82;;
20890;SDS011;10605;52.968;8.844;2023-10-31T01:55:45;16.13;;;14.52;;
20890;SDS011;10605;52.968;8.844;2023-10-31T01:58:12;15.88;;;14.18;;
20890;SDS011;10605;52.968;8.844;2023-10-31T02:00:41;18.90;;;14.45;;
20890;SDS011;10605;52.968;8.844;2023-10-31T02:03:08;16.00;;;14.40;;
20890;SDS011;10605;52.968;8.844;2023-10-31T02:05:34;20.80;;;16.38;;
20890;SDS011;10605;52.968;8.844;2023-10-31T02:08:03;17.73;;;15.00;;
20890;SDS011;10605;52.968;8.844;2023-10-31T02:10:30;22.05;;;15.10;;
20890;SDS011;10605;52.968;8.844;2023-10-31T02:12:55;18.02;;;16.13;;
20890;SDS011;10605;52.968;8.844;2023-10-31T02:15:21;20.42;;;16.85;;
20890;SDS011;10605;52.968;8.844;2023-10-31T02:17:47;22.63;;;18.27;;
20890;SDS011;10605;52.968;8.844;2023-10-31T02:20:12;24.00;;;17.10;;
20890;SDS011;10605;52.968;8.844;2023-10-31T02:22:38;24.00;;;18.05;;
20890;SDS011;10605;52.968;8.844;2023-10-31T02:25:15;20.27;;;16.80;;
20890;SDS011;10605;52.968;8.844;2023-10-31T02:27:42;23.52;;;17.73;;
20890;SDS011;10605;52.968;8.844;2023-10-31T02:30:07;29.30;;;19.42;;
20890;SDS011;10605;52.968;8.844;2023-10-31T02:32:33;26.33;;;19.48;;
20890;SDS011;10605;52.968;8.844;2023-10-31T02:34:59;26.70;;;19.63;;
20890;SDS011;10605;52.968;8.844;2023-10-31T02:37:24;27.52;;;19.40;;
20890;SDS011;10605;52.968;8.844;2023-10-31T02:39:50;25.52;;;19.10;;
20890;SDS011;10605;52.968;8.844;2023-10-31T02:42:15;25.55;;;19.50;;
20890;SDS011;10605;52.968;8.844;2023-10-31T02:44:41;30.17;;;20.08;;
20890;SDS011;10605;52.968;8.844;2023-10-31T02:47:07;29.42;;;19.88;;
20890;SDS011;10605;52.968;8.844;2023-10-31T02:49:32;28.98;;;20.60;;
20890;SDS011;10605;52.968;8.844;2023-10-31T02:51:58;33.88;;;20.85;;
20890;SDS011;10605;52.968;8.844;2023-10-31T02:54:23;30.50;;;21.75;;
20890;SDS011;10605;52.968;8.844;2023-10-31T02:56:49;28.85;;;20.85;;
20890;SDS011;10605;52.968;8.844;2023-10-31T02:59:15;33.70;;;22.30;;
20890;SDS011;10605;52.968;8.844;2023-10-31T03:01:40;31.42;;;21.13;;
20890;SDS011;10605;52.968;8.844;2023-10-31T03:04:06;33.10;;;22.25;;
20890;SDS011;10605;52.968;8.844;2023-10-31T03:06:31;30.50;;;21.48;;
20890;SDS011;10605;52.968;8.844;2023-10-31T03:08:57;36.72;;;23.63;;
20890;SDS011;10605;52.968;8.844;2023-10-31T03:11:23;37.30;;;22.15;;
20890;SDS011;10605;52.968;8.844;2023-10-31T03:13:49;37.10;;;22.60;;
20890;SDS011;10605;52.968;8.844;2023-10-31T03:16:15;36.38;;;21.85;;
20890;SDS011;10605;52.968;8.844;2023-10-31T03:18:41;32.25;;;22.42;;
20890;SDS011;10605;52.968;8.844;2023-10-31T03:21:07;29.92;;;21.77;;
20890;SDS011;10605;52.968;8.844;2023-10-31T03:23:33;31.25;;;21.67;;
20890;SDS011;10605;52.968;8.844;2023-10-31T03:25:58;32.30;;;21.92;;
20890;SDS011;10605;52.968;8.844;2023-10-31T03:28:24;33.67;;;21.65;;
20890;SDS011;10605;52.968;8.844;2023-10-31T03:30:50;27.67;;;20.08;;
20890;SDS011;10605;52.968;8.844;2023-10-31T03:33:16;34.75;;;21.38;;
20890;SDS011;10605;52.968;8.844;2023-10-31T03:35:42;30.55;;;20.27;;
20890;SDS011;10605;52.968;8.844;2023-10-31T03:38:08;31.08;;;20.77;;
20890;SDS011;10605;52.968;8.844;2023-10-31T03:40:34;31.63;;;20.45;;
20890;SDS011;10605;52.968;8.844;2023-10-31T03:42:59;24.45;;;18.10;;
20890;SDS011;10605;52.968;8.844;2023-10-31T03:45:25;28.58;;;18.60;;
20890;SDS011;10605;52.968;8.844;2023-10-31T03:47:51;21.80;;;16.48;;
20890;SDS011;10605;52.968;8.844;2023-10-31T03:50:16;24.27;;;16.25;;
20890;SDS011;10605;52.968;8.844;2023-10-31T03:52:42;21.65;;;15.68;;
20890;SDS011;10605;52.968;8.844;2023-10-31T03:55:08;23.52;;;15.73;;
20890;SDS011;10605;52.968;8.844;2023-10-31T03:57:34;20.85;;;15.45;;
20890;SDS011;10605;52.968;8.844;2023-10-31T03:59:59;17.55;;;14.43;;
20890;SDS011;10605;52.968;8.844;2023-10-31T04:02:25;23.02;;;17.40;;
20890;SDS011;10605;52.968;8.844;2023-10-31T04:04:51;25.95;;;18.55;;
20890;SDS011;10605;52.968;8.844;2023-10-31T04:07:16;24.95;;;17.75;;
20890;SDS011;10605;52.968;8.844;2023-10-31T04:09:42;27.50;;;19.50;;
20890;SDS011;10605;52.968;8.844;2023-10-31T04:12:08;30.17;;;21.70;;
20890;SDS011;10605;52.968;8.844;2023-10-31T04:14:34;40.65;;;25.08;;
20890;SDS011;10605;52.968;8.844;2023-10-31T04:17:00;37.47;;;25.98;;
20890;SDS011;10605;52.968;8.844;2023-10-31T04:19:25;42.35;;;27.02;;
20890;SDS011;10605;52.968;8.844;2023-10-31T04:21:52;38.47;;;25.05;;
20890;SDS011;10605;52.968;8.844;2023-10-31T04:24:19;41.88;;;26.05;;
20890;SDS011;10605;52.968;8.844;2023-10-31T04:26:44;35.70;;;24.85;;
20890;SDS011;10605;52.968;8.844;2023-10-31T04:29:10;35.05;;;24.17;;
20890;SDS011;10605;52.968;8.844;2023-10-31T04:31:36;27.33;;;20.40;;
20890;SDS011;10605;52.968;8.844;2023-10-31T04:34:01;26.33;;;19.17;;
20890;SDS011;10605;52.968;8.844;2023-10-31T04:36:27;25.10;;;18.85;;
20890;SDS011;10605;52.968;8.844;2023-10-31T04:38:53;21.55;;;17.83;;
20890;SDS011;10605;52.968;8.844;2023-10-31T04:41:19;25.10;;;17.25;;
20890;SDS011;10605;52.968;8.844;2023-10-31T04:43:44;18.77;;;16.25;;
20890;SDS011;10605;52.968;8.844;2023-10-31T04:46:10;17.80;;;15.10;;
20890;SDS011;10605;52.968;8.844;2023-10-31T04:48:36;17.98;;;14.50;;
20890;SDS011;10605;52.968;8.844;2023-10-31T04:51:02;20.23;;;16.08;;
20890;SDS011;10605;52.968;8.844;2023-10-31T04:53:28;18.75;;;16.17;;
20890;SDS011;10605;52.968;8.844;2023-10-31T04:55:53;21.17;;;17.33;;
20890;SDS011;10605;52.968;8.844;2023-10-31T04:58:19;25.65;;;18.60;;
20890;SDS011;10605;52.968;8.844;2023-10-31T05:00:44;22.52;;;17.88;;
20890;SDS011;10605;52.968;8.844;2023-10-31T05:03:11;21.13;;;17.15;;
20890;SDS011;10605;52.968;8.844;2023-10-31T05:05:37;24.30;;;19.42;;
20890;SDS011;10605;52.968;8.844;2023-10-31T05:08:02;22.77;;;18.38;;
20890;SDS011;10605;52.968;8.844;2023-10-31T05:10:28;26.92;;;18.48;;
20890;SDS011;10605;52.968;8.844;2023-10-31T05:12:54;23.25;;;17.60;;
20890;SDS011;10605;52.968;8.844;2023-10-31T05:15:20;17.90;;;15.88;;
20890;SDS011;10605;52.968;8.844;2023-10-31T05:17:45;14.80;;;12.10;;
20890;SDS011;10605;52.968;8.844;2023-10-31T05:20:11;13.82;;;11.63;;
20890;SDS011;10605;52.968;8.844;2023-10-31T05:22:36;13.75;;;12.35;;
20890;SDS011;10605;52.968;8.844;2023-10-31T05:25:02;13.13;;;11.82;;
20890;SDS011;10605;52.968;8.844;2023-10-31T05:27:30;13.70;;;11.85;;
20890;SDS011;10605;52.968;8.844;2023-10-31T05:29:55;13.60;;;12.40;;
20890;SDS011;10605;52.968;8.844;2023-10-31T05:32:21;13.48;;;12.10;;
20890;SDS011;10605;52.968;8.844;2023-10-31T05:34:47;14.50;;;12.60;;
20890;SDS011;10605;52.968;8.844;2023-10-31T05:37:12;13.02;;;11.82;;
20890;SDS011;10605;52.968;8.844;2023-10-31T05:39:38;13.25;;;12.07;;
20890;SDS011;10605;52.968;8.844;2023-10-31T05:42:04;12.68;;;10.75;;
20890;SDS011;10605;52.968;8.844;2023-10-31T05:44:29;8.85;;;8.18;;
20890;SDS011;10605;52.968;8.844;2023-10-31T05:46:55;7.25;;;6.85;;
20890;SDS011;10605;52.968;8.844;2023-10-31T05:49:20;6.57;;;6.18;;
20890;SDS011;10605;52.968;8.844;2023-10-31T05:51:50;5.00;;;4.70;;
20890;SDS011;10605;52.968;8.844;2023-10-31T05:54:16;3.88;;;3.58;;
20890;SDS011;10605;52.968;8.844;2023-10-31T05:56:42;2.72;;;2.60;;
20890;SDS011;10605;52.968;8.844;2023-10-31T05:59:09;2.00;;;1.90;;
20890;SDS011;10605;52.968;8.844;2023-10-31T06:01:35;1.60;;;1.50;;
20890;SDS011;10605;52.968;8.844;2023-10-31T06:04:01;2.38;;;1.23;;
20890;SDS011;10605;52.968;8.844;2023-10-31T06:06:27;4.72;;;1.10;;
20890;SDS011;10605;52.968;8.844;2023-10-31T06:08:53;2.40;;;1.13;;
20890;SDS011;10605;52.968;8.844;2023-10-31T06:11:18;1.00;;;0.90;;
20890;SDS011;10605;52.968;8.844;2023-10-31T06:13:44;0.50;;;0.50;;
20890;SDS011;10605;52.968;8.844;2023-10-31T06:16:10;2.50;;;0.43;;
20890;SDS011;10605;52.968;8.844;2023-10-31T06:18:36;0.60;;;0.60;;
20890;SDS011;10605;52.968;8.844;2023-10-31T06:21:03;1.45;;;0.85;;
20890;SDS011;10605;52.968;8.844;2023-10-31T06:23:29;3.60;;;0.90;;
20890;SDS011;10605;52.968;8.844;2023-10-31T06:25:54;1.35;;;1.20;;
20890;SDS011;10605;52.968;8.844;2023-10-31T06:28:20;2.15;;;0.70;;
20890;SDS011;10605;52.968;8.844;2023-10-31T06:30:46;1.30;;;1.20;;
20890;SDS011;10605;52.968;8.844;2023-10-31T06:33:11;1.95;;;1.85;;
20890;SDS011;10605;52.968;8.844;2023-10-31T06:35:37;1.63;;;1.55;;
20890;SDS011;10605;52.968;8.844;2023-10-31T06:38:02;4.43;;;1.48;;
20890;SDS011;10605;52.968;8.844;2023-10-31T06:40:28;1.42;;;1.33;;
20890;SDS011;10605;52.968;8.844;2023-10-31T06:42:54;2.75;;;1.15;;
20890;SDS011;10605;52.968;8.844;2023-10-31T06:45:19;2.72;;;1.10;;
20890;SDS011;10605;52.968;8.844;2023-10-31T06:47:45;1.20;;;1.20;;
20890;SDS011;10605;52.968;8.844;2023-10-31T06:50:10;4.05;;;1.17;;
20890;SDS011;10605;52.968;8.844;2023-10-31T06:52:36;1.38;;;1.20;;
20890;SDS011;10605;52.968;8.844;2023-10-31T06:55:02;0.93;;;0.93;;
20890;SDS011;10605;52.968;8.844;2023-10-31T06:57:27;1.30;;;1.20;;
20890;SDS011;10605;52.968;8.844;2023-10-31T06:59:53;1.13;;;1.13;;
20890;SDS011;10605;52.968;8.844;2023-10-31T07:02:19;2.22;;;1.27;;
20890;SDS011;10605;52.968;8.844;2023-10-31T07:04:44;1.20;;;1.10;;
20890;SDS011;10605;52.968;8.844;2023-10-31T07:07:10;1.58;;;1.20;;
20890;SDS011;10605;52.968;8.844;2023-10-31T07:09:35;1.70;;;1.38;;
20890;SDS011;10605;52.968;8.844;2023-10-31T07:12:01;1.65;;;1.55;;
20890;SDS011;10605;52.968;8.844;2023-10-31T07:14:27;2.80;;;1.42;;
20890;SDS011;10605;52.968;8.844;2023-10-31T07:16:52;1.88;;;1.38;;
20890;SDS011;10605;52.968;8.844;2023-10-31T07:19:18;4.00;;;1.80;;
20890;SDS011;10605;52.968;8.844;2023-10-31T07:21:43;2.47;;;1.73;;
20890;SDS011;10605;52.968;8.844;2023-10-31T07:24:11;2.50;;;1.83;;
20890;SDS011;10605;52.968;8.844;2023-10-31T07:26:37;2.10;;;1.83;;
20890;SDS011;10605;52.968;8.844;2023-10-31T07:29:03;2.10;;;1.30;;
20890;SDS011;10605;52.968;8.844;2023-10-31T07:31:29;1.23;;;1.20;;
20890;SDS011;10605;52.968;8.844;2023-10-31T07:33:54;2.33;;;1.45;;
20890;SDS011;10605;52.968;8.844;2023-10-31T07:36:21;1.50;;;1.40;;
20890;SDS011;10605;52.968;8.844;2023-10-31T07:38:46;1.60;;;1.50;;
20890;SDS011;10605;52.968;8.844;2023-10-31T07:41:13;2.10;;;1.80;;
20890;SDS011;10605;52.968;8.844;2023-10-31T07:43:38;2.10;;;2.00;;
20890;SDS011;10605;52.968;8.844;2023-10-31T07:46:04;3.38;;;2.60;;
20890;SDS011;10605;52.968;8.844;2023-10-31T07:48:30;1.90;;;1.80;;
20890;SDS011;10605;52.968;8.844;2023-10-31T07:50:56;1.98;;;1.48;;
20890;SDS011;10605;52.968;8.844;2023-10-31T07:53:22;1.63;;;1.52;;
20890;SDS011;10605;52.968;8.844;2023-10-31T07:55:48;1.60;;;1.50;;
20890;SDS011;10605;52.968;8.844;2023-10-31T07:58:14;3.00;;;1.65;;
20890;SDS011;10605;52.968;8.844;2023-10-31T08:00:40;1.08;;;1.02;;
20890;SDS011;10605;52.968;8.844;2023-10-31T08:03:06;0.73;;;0.73;;
20890;SDS011;10605;52.968;8.844;2023-10-31T08:05:31;1.27;;;1.05;;
20890;SDS011;10605;52.968;8.844;2023-10-31T08:07:57;2.15;;;0.98;;
20890;SDS011;10605;52.968;8.844;2023-10-31T08:10:23;0.73;;;0.73;;
20890;SDS011;10605;52.968;8.844;2023-10-31T08:12:49;1.00;;;0.52;;
20890;SDS011;10605;52.968;8.844;2023-10-31T08:15:14;0.77;;;0.50;;
20890;SDS011;10605;52.968;8.844;2023-10-31T08:17:41;0.55;;;0.40;;
20890;SDS011;10605;52.968;8.844;2023-10-31T08:20:07;5.00;;;0.70;;
20890;SDS011;10605;52.968;8.844;2023-10-31T08:22:35;0.68;;;0.68;;
20890;SDS011;10605;52.968;8.844;2023-10-31T08:25:02;0.90;;;0.60;;
20890;SDS011;10605;52.968;8.844;2023-10-31T08:27:27;1.13;;;0.90;;
20890;SDS011;10605;52.968;8.844;2023-10-31T08:29:53;0.85;;;0.85;;
20890;SDS011;10605;52.968;8.844;2023-10-31T08:32:19;5.72;;;1.55;;
20890;SDS011;10605;52.968;8.844;2023-10-31T08:34:44;2.55;;;1.42;;
20890;SDS011;10605;52.968;8.844;2023-10-31T08:37:10;1.98;;;1.88;;
20890;SDS011;10605;52.968;8.844;2023-10-31T08:39:35;3.10;;;1.80;;
20890;SDS011;10605;52.968;8.844;2023-10-31T08:42:01;2.50;;;2.30;;
20890;SDS011;10605;52.968;8.844;2023-10-31T08:44:27;2.38;;;1.70;;
20890;SDS011;10605;52.968;8.844;2023-10-31T08:46:52;0.90;;;0.90;;
20890;SDS011;10605;52.968;8.844;2023-10-31T08:49:18;0.57;;;0.57;;
20890;SDS011;10605;52.968;8.844;2023-10-31T08:51:44;0.68;;;0.43;;
20890;SDS011;10605;52.968;8.844;2023-10-31T08:54:10;0.73;;;0.70;;
20890;SDS011;10605;52.968;8.844;2023-10-31T08:56:36;0.80;;;0.80;;
20890;SDS011;10605;52.968;8.844;2023-10-31T08:59:01;0.90;;;0.90;;
20890;SDS011;10605;52.968;8.844;2023-10-31T09:01:27;0.65;;;0.65;;
20890;SDS011;10605;52.968;8.844;2023-10-31T09:03:56;0.80;;;0.80;;
20890;SDS011;10605;52.968;8.844;2023-10-31T09:06:23;0.93;;;0.93;;
20890;SDS011;10605;52.968;8.844;2023-10-31T09:08:49;0.90;;;0.90;;
20890;SDS011;10605;52.968;8.844;2023-10-31T09:11:15;0.63;;;0.63;;
20890;SDS011;10605;52.968;8.844;2023-10-31T09:13:40;2.38;;;0.50;;
20890;SDS011;10605;52.968;8.844;2023-10-31T09:16:06;1.15;;;0.70;;
20890;SDS011;10605;52.968;8.844;2023-10-31T09:18:32;2.85;;;0.75;;
20890;SDS011;10605;52.968;8.844;2023-10-31T09:20:58;0.77;;;0.43;;
20890;SDS011;10605;52.968;8.844;2023-10-31T09:23:23;0.35;;;0.30;;
20890;SDS011;10605;52.968;8.844;2023-10-31T09:25:49;0.75;;;0.50;;
20890;SDS011;10605;52.968;8.844;2023-10-31T09:28:14;0.60;;;0.60;;
20890;SDS011;10605;52.968;8.844;2023-10-31T09:30:40;0.60;;;0.60;;
20890;SDS011;10605;52.968;8.844;2023-10-31T09:33:06;1.25;;;0.65;;
20890;SDS011;10605;52.968;8.844;2023-10-31T09:35:31;2.83;;;0.80;;
20890;SDS011;10605;52.968;8.844;2023-10-31T09:37:57;0.50;;;0.50;;
20890;SDS011;10605;52.968;8.844;2023-10-31T09:40:23;3.88;;;0.90;;
20890;SDS011;10605;52.968;8.844;2023-10-31T09:42:48;2.67;;;0.80;;
20890;SDS011;10605;52.968;8.844;2023-10-31T09:45:14;1.67;;;0.90;;
20890;SDS011;10605;52.968;8.844;2023-10-31T09:47:41;2.05;;;1.00;;
20890;SDS011;10605;52.968;8.844;2023-10-31T09:50:09;2.45;;;1.27;;
20890;SDS011;10605;52.968;8.844;2023-10-31T09:52:37;1.73;;;1.25;;
20890;SDS011;10605;52.968;8.844;2023-10-31T09:55:03;1.30;;;1.20;;
20890;SDS011;10605;52.968;8.844;2023-10-31T09:57:30;4.32;;;1.25;;
20890;SDS011;10605;52.968;8.844;2023-10-31T09:59:55;2.05;;;1.38;;
20890;SDS011;10605;52.968;8.844;2023-10-31T10:02:21;1.60;;;1.50;;
20890;SDS011;10605;52.968;8.844;2023-10-31T10:04:49;2.22;;;1.50;;
20890;SDS011;10605;52.968;8.844;2023-10-31T10:07:15;2.05;;;1.92;;
20890;SDS011;10605;52.968;8.844;2023-10-31T10:09:43;3.63;;;1.70;;
20890;SDS011;10605;52.968;8.844;2023-10-31T10:12:11;1.90;;;1.80;;
20890;SDS011;10605;52.968;8.844;2023-10-31T10:14:38;3.60;;;2.17;;
20890;SDS011;10605;52.968;8.844;2023-10-31T10:17:17;2.25;;;2.05;;
20890;SDS011;10605;52.968;8.844;2023-10-31T10:19:47;2.38;;;2.17;;
20890;SDS011;10605;52.968;8.844;2023-10-31T10:22:12;2.38;;;2.17;;
20890;SDS011;10605;52.968;8.844;2023-10-31T10:24:40;6.57;;;2.33;;
20890;SDS011;10605;52.968;8.844;2023-10-31T10:27:07;1.83;;;1.70;;
20890;SDS011;10605;52.968;8.844;2023-10-31T10:29:33;1.92;;;1.77;;
20890;SDS011;10605;52.968;8.844;2023-10-31T10:31:59;4.07;;;2.25;;
20890;SDS011;10605;52.968;8.844;2023-10-31T10:34:25;6.38;;;1.80;;
20890;SDS011;10605;52.968;8.844;2023-10-31T10:36:51;1.88;;;1.75;;
20890;SDS011;10605;52.968;8.844;2023-10-31T10:39:18;5.50;;;1.27;;
20890;SDS011;10605;52.968;8.844;2023-10-31T10:41:46;2.05;;;1.60;;
20890;SDS011;10605;52.968;8.844;2023-10-31T10:44:22;2.58;;;1.23;;
20890;SDS011;10605;52.968;8.844;2023-10-31T10:46:55;1.48;;;1.00;;
20890;SDS011;10605;52.968;8.844;2023-10-31T10:49:22;1.35;;;1.25;;
20890;SDS011;10605;52.968;8.844;2023-10-31T10:54:37;2.13;;;1.20;;
20890;SDS011;10605;52.968;8.844;2023-10-31T10:59:47;1.63;;;1.20;;
20890;SDS011;10605;52.968;8.844;2023-10-31T11:02:18;2.75;;;1.00;;
20890;SDS011;10605;52.968;8.844;2023-10-31T11:04:43;1.60;;;1.17;;
20890;SDS011;10605;52.968;8.844;2023-10-31T11:07:09;1.60;;;1.15;;
20890;SDS011;10605;52.968;8.844;2023-10-31T11:09:36;1.85;;;1.20;;
20890;SDS011;10605;52.968;8.844;2023-10-31T11:12:08;2.00;;;1.15;;
20890;SDS011;10605;52.968;8.844;2023-10-31T11:14:35;1.33;;;1.20;;
20890;SDS011;10605;52.968;8.844;2023-10-31T11:20:04;1.33;;;1.15;;
20890;SDS011;10605;52.968;8.844;2023-10-31T11:22:38;2.28;;;1.33;;
20890;SDS011;10605;52.968;8.844;2023-10-31T11:25:06;1.50;;;1.30;;
20890;SDS011;10605;52.968;8.844;2023-10-31T11:27:34;2.03;;;1.40;;
20890;SDS011;10605;52.968;8.844;2023-10-31T11:33:01;2.08;;;1.30;;
20890;SDS011;10605;52.968;8.844;2023-10-31T11:35:30;3.22;;;1.40;;
20890;SDS011;10605;52.968;8.844;2023-10-31T11:38:05;1.58;;;1.40;;
20890;SDS011;10605;52.968;8.844;2023-10-31T11:40:32;1.83;;;0.98;;
20890;SDS011;10605;52.968;8.844;2023-10-31T11:42:58;1.75;;;1.15;;
20890;SDS011;10605;52.968;8.844;2023-10-31T11:48:01;3.05;;;1.20;;
20890;SDS011;10605;52.968;8.844;2023-10-31T11:50:27;2.15;;;1.13;;
20890;SDS011;10605;52.968;8.844;2023-10-31T11:53:03;1.80;;;1.35;;
20890;SDS011;10605;52.968;8.844;2023-10-31T11:55:42;5.18;;;2.40;;
20890;SDS011;10605;52.968;8.844;2023-10-31T11:58:18;1.35;;;1.20;;
20890;SDS011;10605;52.968;8.844;2023-10-31T12:00:48;2.65;;;1.90;;
20890;SDS011;10605;52.968;8.844;2023-10-31T12:03:21;6.05;;;1.63;;
20890;SDS011;10605;52.968;8.844;2023-10-31T12:05:50;1.45;;;0.88;;
20890;SDS011;10605;52.968;8.844;2023-10-31T12:08:30;2.30;;;1.00;;
20890;SDS011;10605;52.968;8.844;2023-10-31T12:11:10;3.15;;;1.23;;
20890;SDS011;10605;52.968;8.844;2023-10-31T12:13:41;2.53;;;1.13;;
20890;SDS011;10605;52.968;8.844;2023-10-31T12:16:15;2.30;;;1.20;;
20890;SDS011;10605;52.968;8.844;2023-10-31T12:18:41;1.40;;;0.98;;
20890;SDS011;10605;52.968;8.844;2023-10-31T12:21:07;1.02;;;0.80;;
20890;SDS011;10605;52.968;8.844;2023-10-31T12:23:33;1.20;;;0.85;;
20890;SDS011;10605;52.968;8.844;2023-10-31T12:25:59;2.45;;;1.42;;
20890;SDS011;10605;52.968;8.844;2023-10-31T12:28:25;2.78;;;1.85;;
20890;SDS011;10605;52.968;8.844;2023-10-31T12:30:53;1.63;;;0.80;;
20890;SDS011;10605;52.968;8.844;2023-10-31T12:33:20;2.22;;;1.38;;
20890;SDS011;10605;52.968;8.844;2023-10-31T12:35:49;1.63;;;1.00;;
20890;SDS011;10605;52.968;8.844;2023-10-31T12:38:16;4.65;;;1.23;;
20890;SDS011;10605;52.968;8.844;2023-10-31T12:40:42;1.88;;;1.00;;
20890;SDS011;10605;52.968;8.844;2023-10-31T12:43:09;2.60;;;2.03;;
20890;SDS011;10605;52.968;8.844;2023-10-31T12:45:35;2.38;;;1.50;;
20890;SDS011;10605;52.968;8.844;2023-10-31T12:48:02;3.40;;;2.40;;
20890;SDS011;10605;52.968;8.844;2023-10-31T12:50:30;3.42;;;1.80;;
20890;SDS011;10605;52.968;8.844;2023-10-31T12:52:56;7.95;;;6.95;;
20890;SDS011;10605;52.968;8.844;2023-10-31T12:55:24;4.80;;;2.95;;
20890;SDS011;10605;52.968;8.844;2023-10-31T12:57:56;0.40;;;0.40;;
20890;SDS011;10605;52.968;8.844;2023-10-31T13:00:29;1.38;;;0.63;;
20890;SDS011;10605;52.968;8.844;2023-10-31T13:03:03;0.85;;;0.70;;
20890;SDS011;10605;52.968;8.844;2023-10-31T13:05:33;1.85;;;1.20;;
20890;SDS011;10605;52.968;8.844;2023-10-31T13:07:59;2.38;;;1.42;;
20890;SDS011;10605;52.968;8.844;2023-10-31T13:10:28;2.55;;;1.80;;
20890;SDS011;10605;52.968;8.844;2023-10-31T13:12:54;5.15;;;1.25;;
20890;SDS011;10605;52.968;8.844;2023-10-31T13:15:21;3.60;;;1.15;;
20890;SDS011;10605;52.968;8.844;2023-10-31T13:17:48;2.58;;;0.85;;
20890;SDS011;10605;52.968;8.844;2023-10-31T13:20:14;3.50;;;0.88;;
20890;SDS011;10605;52.968;8.844;2023-10-31T13:22:41;4.22;;;1.00;;
20890;SDS011;10605;52.968;8.844;2023-10-31T13:25:08;4.88;;;1.33;;
20890;SDS011;10605;52.968;8.844;2023-10-31T13:27:36;3.08;;;1.00;;
20890;SDS011;10605;52.968;8.844;2023-10-31T13:30:03;1.95;;;0.98;;
20890;SDS011;10605;52.968;8.844;2023-10-31T13:32:29;2.58;;;1.10;;
20890;SDS011;10605;52.968;8.844;2023-10-31T13:34:55;1.63;;;1.00;;
20890;SDS011;10605;52.968;8.844;2023-10-31T13:37:21;0.88;;;0.65;;
20890;SDS011;10605;52.968;8.844;2023-10-31T13:39:47;2.55;;;0.75;;
20890;SDS011;10605;52.968;8.844;2023-10-31T13:42:12;1.05;;;0.88;;
20890;SDS011;10605;52.968;8.844;2023-10-31T13:44:39;2.90;;;0.77;;
20890;SDS011;10605;52.968;8.844;2023-10-31T13:47:05;4.47;;;0.98;;
20890;SDS011;10605;52.968;8.844;2023-10-31T13:49:31;3.08;;;1.00;;
20890;SDS011;10605;52.968;8.844;2023-10-31T13:51:57;1.73;;;1.55;;
20890;SDS011;10605;52.968;8.844;2023-10-31T13:54:23;2.88;;;2.65;;
20890;SDS011;10605;52.968;8.844;2023-10-31T13:56:49;4.88;;;0.95;;
20890;SDS011;10605;52.968;8.844;2023-10-31T13:59:14;1.88;;;0.68;;
20890;SDS011;10605;52.968;8.844;2023-10-31T14:01:40;4.43;;;1.40;;
20890;SDS011;10605;52.968;8.844;2023-10-31T14:04:07;0.93;;;0.60;;
20890;SDS011;10605;52.968;8.844;2023-10-31T14:06:33;1.67;;;0.82;;
20890;SDS011;10605;52.968;8.844;2023-10-31T14:08:59;2.47;;;0.73;;
20890;SDS011;10605;52.968;8.844;2023-10-31T14:11:29;0.80;;;0.80;;
20890;SDS011;10605;52.968;8.844;2023-10-31T14:13:56;1.10;;;0.63;;
20890;SDS011;10605;52.968;8.844;2023-10-31T14:16:25;3.53;;;0.60;;
20890;SDS011;10605;52.968;8.844;2023-10-31T14:18:50;1.10;;;0.80;;
20890;SDS011;10605;52.968;8.844;2023-10-31T14:21:16;1.40;;;0.65;;
20890;SDS011;10605;52.968;8.844;2023-10-31T14:23:42;1.38;;;1.20;;
20890;SDS011;10605;52.968;8.844;2023-10-31T14:26:07;3.13;;;1.38;;
20890;SDS011;10605;52.968;8.844;2023-10-31T14:28:33;3.13;;;0.73;;
20890;SDS011;10605;52.968;8.844;2023-10-31T14:30:59;1.75;;;1.17;;
20890;SDS011;10605;52.968;8.844;2023-10-31T14:33:25;4.20;;;0.88;;
20890;SDS011;10605;52.968;8.844;2023-10-31T14:35:50;1.38;;;0.95;;
20890;SDS011;10605;52.968;8.844;2023-10-31T14:38:16;2.15;;;1.00;;
20890;SDS011;10605;52.968;8.844;2023-10-31T14:40:42;1.83;;;1.13;;
20890;SDS011;10605;52.968;8.844;2023-10-31T14:43:07;3.53;;;1.42;;
20890;SDS011;10605;52.968;8.844;2023-10-31T14:45:33;2.92;;;1.30;;
20890;SDS011;10605;52.968;8.844;2023-10-31T14:47:58;2.55;;;2.00;;
20890;SDS011;10605;52.968;8.844;2023-10-31T14:50:24;2.70;;;1.60;;